메인 페이지
METAR-TAF:

METAR-TAF

공항 :

치앙라이, 타이

위도: 19-57-08N, 경도: 099-52-59E, 고도: 390m

현재 날씨관측

예보는 12분 전, 15:00시(UTC)에 발표되었습니다.
남남서9kt
온도 29°C
습도 66%
기압 1006 hPa
시정 10km 이상
고도 3500ft 상공 구름 보통

METAR: VTCT 201500Z 21009KT 9999 SCT035 29/22 Q1006 NOSIG

시각: 22:12 (15:12 UTC)

예보

예보는 4 시간 12분 전, 11:00시(UTC)에 발표되었습니다.
예보 대상 시간: 20일 12시부터 21일 18시까지 (UTC)
남남서5kt
시정 10km 이상
고도 3000ft 상공 구름 보통
일시적
20일 12시부터 20일 16시까지 (UTC)
북서15kt, 순간 최대 풍속 25kt
시정: 4000m
고도 2000ft 상공 구름 조금, 적란운.
고도 3500ft 상공 구름 많음
뇌우, 비
일시적
20일 18시부터 20일 22시까지 (UTC)
15kt, 순간 최대 풍속 25kt
시정: 4000m
고도 2000ft 상공 구름 조금, 적란운.
고도 3500ft 상공 구름 많음
뇌우, 비,

TAF: VTCT 201100Z 2012/2118 21005KT 9999 SCT030 TEMPO 2012/2016 31015G25KT 4000 TSRA FEW020CB BKN035 TEMPO 2018/2022 36015G25KT 4000 TSRA FEW020CB BKN035

4,000개 이상의 공항 관측 자료 및 예보 (METAR 및 TAF 보고).

지도상에서 검색 가능한 기상관측소가 노란 점과 빨간 점으로 표시되어 있습니다.

기상관측소 명을 보려면 표시 위로 마우스를 이동하세요.

날씨 관측과 예보를 보려면 클릭하세요.

지도 변경 : 확대하려면 엑스 표시가 있는 녹색 버튼, 축소하려면 빼기 표시가 있는 녹색 버튼, 다음 페이지의 지도를 보려면 녹색 화살표를 클릭하세요.


METAR-TAF: